»·PEaware :: N413C KRBG-KOTH

N413C :: KRBG-KOTH

FLIGHT INFORMATION

Flight Status: Arrived
Operator: Privately registered:
United States
More flights under this callsign
Pilot: Alec D. (17934)
Aircraft: PIPER PA-28 CHEROKEE ARCHER
(P28A)
More flights by this aircraft type
Origin: KRBG Roseburg Regl
United States
Destination: KOTH North Bend Mun
United States
More flights between these airports :: More routes between these airports
Route: RBG V121 OTH
File this flight plan on PilotEdge
Remarks:
Altitude:
(Current/Filed)
6,000ft
Speed:
(Current/Filed)
105kts
Departed: 14-May-18 12:55 PM
Arrived: 14-May-18 01:35 PM
Distance/Time
Traveled:
40nm/0:40
Distance/Time
To Go:
Arrived

Flight Plot

Page will automatically refresh every two minutes.

Flight plan parsing failed; only flown route is shown


Map Options




Map Legend


Flown Route
Filed Route
Departure Airport
Arrival Airport
Navaid (VOR, NDB)
Fix

Horizontal Profiles

Position Reports

Time Latitude Longitude Heading Altitude Ground
Speed
14-May-18 12:33 43.234131 -123.358230 269 531ft 0kts
14-May-18 12:34 43.234131 -123.358230 269 531ft 0kts
14-May-18 12:35 43.234131 -123.358230 269 531ft 0kts
14-May-18 12:36 43.234131 -123.358230 269 531ft 0kts
14-May-18 12:37 43.234131 -123.358230 269 531ft 0kts
14-May-18 12:38 43.234131 -123.358233 269 531ft 0kts
14-May-18 12:39 43.234131 -123.358235 269 531ft 0kts
14-May-18 12:40 43.234131 -123.358238 269 531ft 0kts
14-May-18 12:41 43.234131 -123.358241 269 531ft 0kts
14-May-18 12:42 43.234131 -123.358244 269 531ft 0kts
14-May-18 12:43 43.234131 -123.358246 269 531ft 0kts
14-May-18 12:44 43.234131 -123.358249 269 531ft 0kts
14-May-18 12:45 43.234131 -123.358252 269 531ft 0kts
14-May-18 12:46 43.234131 -123.358254 269 531ft 0kts
14-May-18 12:47 43.234131 -123.358257 269 531ft 0kts
14-May-18 12:48 43.234880 -123.356931 1 531ft 13kts
14-May-18 12:49 43.239225 -123.356957 0 531ft 23kts
14-May-18 12:50 43.244812 -123.356746 76 531ft 0kts
14-May-18 12:51 43.244816 -123.356724 76 531ft 0kts
14-May-18 12:52 43.244816 -123.356720 76 531ft 0kts
14-May-18 12:53 43.244817 -123.356716 76 531ft 0kts
14-May-18 12:54 43.244818 -123.356711 76 531ft 0kts
14-May-18 12:55 43.240619 -123.355741 177 543ft 76kts
14-May-18 12:56 43.216526 -123.355926 174 1145ft 86kts
14-May-18 12:57 43.192068 -123.353995 176 1709ft 89kts
14-May-18 12:58 43.169556 -123.362213 242 2227ft 88kts
14-May-18 12:59 43.181142 -123.382230 5 2702ft 80kts
14-May-18 13:00 43.203968 -123.380426 3 3169ft 83kts
14-May-18 13:01 43.226564 -123.374284 66 3556ft 84kts
14-May-18 13:02 43.212586 -123.358131 162 3959ft 77kts
14-May-18 13:03 43.192118 -123.351315 184 4355ft 76kts
14-May-18 13:04 43.173831 -123.359916 268 4681ft 83kts
14-May-18 13:05 43.194619 -123.365580 3 4966ft 88kts
14-May-18 13:06 43.217194 -123.358309 73 5194ft 87kts
14-May-18 13:07 43.200148 -123.353193 192 5416ft 82kts
14-May-18 13:08 43.181298 -123.366387 263 5673ft 90kts
14-May-18 13:09 43.190877 -123.398313 292 5910ft 90kts
14-May-18 13:10 43.200967 -123.431167 287 6025ft 98kts
14-May-18 13:11 43.210879 -123.467452 290 5988ft 106kts
14-May-18 13:12 43.222186 -123.505303 290 6002ft 108kts
14-May-18 13:13 43.233609 -123.542719 288 6044ft 105kts
14-May-18 13:14 43.244353 -123.579316 286 6047ft 103kts
14-May-18 13:15 43.254737 -123.616264 286 6058ft 103kts
14-May-18 13:16 43.266077 -123.652574 292 6061ft 104kts
14-May-18 13:17 43.278987 -123.688490 293 6039ft 105kts
14-May-18 13:18 43.292719 -123.724138 296 6042ft 105kts
14-May-18 13:19 43.294072 -123.762173 256 6035ft 103kts
14-May-18 13:20 43.290345 -123.801969 258 6032ft 106kts
14-May-18 13:21 43.297129 -123.844721 285 5716ft 120kts
14-May-18 13:22 43.306883 -123.886667 288 5632ft 110kts
14-May-18 13:23 43.320817 -123.923970 297 5633ft 109kts
14-May-18 13:24 43.334843 -123.960602 296 5647ft 108kts
14-May-18 13:25 43.359816 -123.962214 32 5575ft 106kts
14-May-18 13:26 43.386747 -123.946364 12 5366ft 106kts
14-May-18 13:27 43.413525 -123.955944 289 4987ft 112kts
14-May-18 13:28 43.413571 -123.998153 259 4576ft 111kts
14-May-18 13:29 43.410884 -124.039449 267 4038ft 110kts
14-May-18 13:30 43.411097 -124.082668 270 3348ft 114kts
14-May-18 13:31 43.412874 -124.126077 271 2670ft 116kts
14-May-18 13:32 43.415607 -124.168995 279 2091ft 113kts
14-May-18 13:33 43.423505 -124.206496 302 1106ft 87kts
14-May-18 13:34 43.424949 -124.235371 252 213ft 73kts
14-May-18 13:35 43.418413 -124.251597 226 19ft 16kts
14-May-18 13:36 43.417458 -124.251227 83 19ft 7kts
14-May-18 13:37 43.416812 -124.245506 147 19ft 26kts
14-May-18 13:38 43.415159 -124.246390 236 19ft 0kts
14-May-18 13:39 43.415157 -124.246393 236 19ft 0kts

Navigation Log

Ident Type
Flight plan parsing failed, navigation log unavailable